Time;durP1;ratioP1;P1;durP2;ratioP2;P2;SDS_P1;SDS_P2;PMS_P1;PMS_P2;Temp;Humidity;BMP_temperature;BMP_pressure;BME280_temperature;BME280_humidity;BME280_pressure;Samples;Min_cycle;Max_cycle;Signal;HPM_P1;HPM_P2
2021/12/31 00:02:18;;;;;;;3.60;2.30;;;12.70;99.90;;;;;;5011767;28;20551;-83
2021/12/31 00:04:43;;;;;;;2.40;1.97;;;12.70;99.90;;;;;;5012887;28;20523;-80
2021/12/31 00:07:09;;;;;;;3.53;1.63;;;12.60;99.90;;;;;;5013202;28;20184;-82
2021/12/31 00:09:38;;;;;;;3.20;1.63;;;12.60;99.90;;;;;;5012681;28;20209;-82
2021/12/31 00:12:07;;;;;;;3.07;1.73;;;12.50;99.90;;;;;;5014626;28;20429;-80
2021/12/31 00:14:34;;;;;;;3.70;1.80;;;12.50;99.90;;;;;;5013413;28;20466;-82
2021/12/31 00:16:59;;;;;;;2.30;1.70;;;12.50;99.90;;;;;;5014756;28;20466;-84
2021/12/31 00:19:29;;;;;;;1.93;1.37;;;12.40;99.90;;;;;;5013188;28;20448;-81
2021/12/31 00:21:54;;;;;;;2.70;1.40;;;12.50;99.90;;;;;;5013281;28;20182;-80
2021/12/31 00:24:21;;;;;;;3.73;2.77;;;12.40;99.90;;;;;;5013843;28;20417;-81
2021/12/31 00:26:47;;;;;;;2.83;2.17;;;12.40;99.90;;;;;;5011948;28;20507;-80
2021/12/31 00:29:12;;;;;;;9.13;2.33;;;12.30;99.90;;;;;;5012784;28;20459;-83
2021/12/31 00:31:38;;;;;;;5.93;3.07;;;12.20;99.90;;;;;;5016002;28;20189;-83
2021/12/31 00:34:03;;;;;;;7.80;4.37;;;12.20;99.90;;;;;;5015084;28;20194;-83
2021/12/31 00:36:46;;;;;;;4.27;3.57;;;12.20;99.90;;;;;;5015102;28;20261;-82
2021/12/31 00:39:15;;;;;;;3.87;3.50;;;12.10;99.90;;;;;;5015601;28;20186;-82
2021/12/31 00:41:42;;;;;;;5.40;3.33;;;12.10;99.90;;;;;;5015969;28;20414;-81
2021/12/31 00:44:08;;;;;;;8.60;4.20;;;12.00;99.90;;;;;;5017894;28;20904;-83
2021/12/31 00:46:34;;;;;;;5.00;2.87;;;12.00;99.90;;;;;;5003935;28;20410;-83
2021/12/31 00:49:02;;;;;;;2.60;2.30;;;12.10;99.90;;;;;;4997215;28;20228;-83
2021/12/31 00:51:28;;;;;;;5.80;2.33;;;12.10;99.90;;;;;;5014825;28;20262;-84
2021/12/31 00:53:53;;;;;;;4.20;2.90;;;12.10;99.90;;;;;;4998870;28;20461;-80
2021/12/31 00:56:19;;;;;;;3.30;2.83;;;12.00;99.90;;;;;;5012282;28;20868;-83
2021/12/31 00:58:45;;;;;;;5.17;2.90;;;12.00;99.90;;;;;;5014411;28;20213;-82
2021/12/31 01:01:17;;;;;;;9.23;3.10;;;12.00;99.90;;;;;;5013309;28;20174;-81
2021/12/31 01:03:42;;;;;;;4.87;2.63;;;12.00;99.90;;;;;;5003373;28;20807;-81
2021/12/31 01:06:08;;;;;;;2.70;2.13;;;12.00;99.90;;;;;;4999218;28;20441;-80
2021/12/31 01:08:34;;;;;;;4.30;2.20;;;12.00;99.90;;;;;;5016850;28;20206;-81
2021/12/31 01:10:59;;;;;;;5.47;1.97;;;12.00;99.90;;;;;;5013751;28;20230;-81
2021/12/31 01:13:34;;;;;;;5.37;2.37;;;12.10;99.90;;;;;;5014944;28;20210;-83
2021/12/31 01:16:02;;;;;;;5.07;2.50;;;12.00;99.90;;;;;;5014253;28;20170;-82
2021/12/31 01:21:18;;;;;;;2.63;2.17;;;12.10;99.90;;;;;;4986135;28;20483;-85
2021/12/31 01:23:45;;;;;;;8.02;2.05;;;;;;;;;;4999368;28;20512;-85
2021/12/31 01:26:11;;;;;;;3.40;2.27;;;11.90;99.90;;;;;;4997449;28;20199;-83
2021/12/31 01:28:36;;;;;;;3.17;2.47;;;14.80;99.90;;;;;;5012138;28;20452;-86
2021/12/31 01:31:03;;;;;;;3.93;2.10;;;11.90;99.90;;;;;;5000128;28;20418;-87
2021/12/31 01:33:29;;;;;;;2.70;1.87;;;11.90;99.90;;;;;;4997654;28;20655;-82
2021/12/31 01:35:55;;;;;;;11.53;3.23;;;11.90;99.90;;;;;;5010397;28;20439;-81
2021/12/31 01:38:21;;;;;;;5.03;2.50;;;11.80;99.90;;;;;;4995758;28;20483;-83
2021/12/31 01:40:48;;;;;;;4.53;2.07;;;11.80;99.90;;;;;;4994439;28;20511;-84
2021/12/31 01:43:15;;;;;;;2.63;2.20;;;11.70;99.90;;;;;;4994408;28;20206;-83
2021/12/31 01:45:46;;;;;;;2.40;2.05;;;11.70;99.90;;;;;;5016379;28;21069;-83
2021/12/31 01:48:25;;;;;;;2.15;1.50;;;11.60;99.90;;;;;;5014470;28;20210;-82
2021/12/31 01:50:52;;;;;;;3.13;1.90;;;11.60;99.90;;;;;;4993942;28;20879;-82
2021/12/31 01:53:22;;;;;;;7.43;2.07;;;11.50;99.90;;;;;;5015733;28;20475;-82
2021/12/31 01:55:50;;;;;;;3.30;2.15;;;11.50;99.90;;;;;;5013642;28;20444;-81
2021/12/31 01:58:22;;;;;;;1.77;1.67;;;11.50;99.90;;;;;;5011428;28;20673;-87
2021/12/31 02:00:54;;;;;;;3.60;1.88;;;11.50;99.90;;;;;;4991518;28;20171;-83
2021/12/31 02:03:22;;;;;;;1.92;1.60;;;11.50;99.90;;;;;;4993511;28;20329;-84
2021/12/31 02:05:48;;;;;;;2.37;1.83;;;11.50;99.90;;;;;;5010226;28;20670;-85
2021/12/31 02:08:23;;;;;;;4.47;1.70;;;;;;;;;;4986487;28;20527;-87
2021/12/31 02:10:51;;;;;;;3.35;1.98;;;11.40;99.90;;;;;;5009473;28;20181;-83
2021/12/31 02:13:18;;;;;;;6.00;1.80;;;11.40;99.90;;;;;;5009263;28;20209;-85
2021/12/31 02:15:44;;;;;;;5.35;2.20;;;11.40;99.90;;;;;;5011709;28;20521;-80
2021/12/31 02:18:10;;;;;;;4.30;1.92;;;11.30;99.90;;;;;;4990150;28;20222;-81
2021/12/31 02:20:41;;;;;;;2.67;1.80;;;11.20;99.90;;;;;;5010114;28;20186;-82
2021/12/31 02:23:17;;;;;;;4.65;2.10;;;11.10;99.90;;;;;;5013120;28;20479;-83
2021/12/31 02:25:43;;;;;;;2.95;1.92;;;10.90;99.90;;;;;;5014130;28;20178;-82
2021/12/31 02:28:09;;;;;;;5.53;1.57;;;10.40;99.90;;;;;;5012658;28;20182;-79
2021/12/31 02:30:35;;;;;;;2.87;2.20;;;10.40;99.90;;;;;;5016109;28;20995;-82
2021/12/31 02:33:03;;;;;;;4.07;1.70;;;10.20;99.90;;;;;;5016754;28;20184;-81
2021/12/31 02:35:29;;;;;;;1.88;1.38;;;9.90;99.90;;;;;;4991844;28;20440;-80
2021/12/31 02:37:55;;;;;;;1.92;1.48;;;9.50;99.90;;;;;;4997207;28;20288;-81
2021/12/31 02:40:23;;;;;;;2.15;1.73;;;9.50;99.90;;;;;;5014883;28;20796;-80
2021/12/31 02:42:49;;;;;;;3.30;1.40;;;9.30;99.90;;;;;;4997049;28;20183;-79
2021/12/31 02:45:15;;;;;;;4.07;1.80;;;9.40;99.90;;;;;;5014995;28;20210;-78
2021/12/31 02:47:45;;;;;;;3.78;1.80;;;9.20;99.90;;;;;;5014899;28;20456;-80
2021/12/31 02:50:17;;;;;;;5.30;2.20;;;9.30;99.90;;;;;;5012624;28;20190;-81
2021/12/31 02:52:43;;;;;;;2.83;1.70;;;9.20;99.90;;;;;;5016301;28;20182;-85
2021/12/31 02:55:11;;;;;;;4.22;2.13;;;9.20;99.90;;;;;;5013956;28;20190;-79
2021/12/31 02:57:40;;;;;;;2.65;1.73;;;9.10;99.90;;;;;;5017202;28;20216;-84
2021/12/31 03:00:08;;;;;;;5.47;1.80;;;9.00;99.90;;;;;;4996305;28;20210;-81
2021/12/31 03:02:36;;;;;;;8.63;2.10;;;9.00;99.90;;;;;;5001056;28;20177;-83
2021/12/31 03:05:03;;;;;;;10.85;2.30;;;9.00;99.90;;;;;;5016529;28;20839;-82
2021/12/31 03:07:30;;;;;;;5.25;1.90;;;8.90;99.90;;;;;;4998225;28;20213;-82
2021/12/31 03:09:58;;;;;;;5.82;2.10;;;8.80;99.90;;;;;;5015174;28;20212;-81
2021/12/31 03:12:23;;;;;;;4.75;2.30;;;8.80;99.90;;;;;;4997316;28;20183;-80
2021/12/31 03:14:49;;;;;;;5.80;2.00;;;8.60;99.90;;;;;;4998037;28;20182;-81
2021/12/31 03:17:15;;;;;;;5.80;2.00;;;8.60;99.90;;;;;;4997205;28;20220;-82
2021/12/31 03:19:43;;;;;;;4.00;1.80;;;8.60;99.90;;;;;;5015379;28;20202;-81
2021/12/31 03:22:09;;;;;;;3.53;2.00;;;8.50;99.90;;;;;;5000115;28;20309;-81
2021/12/31 03:24:34;;;;;;;3.50;1.90;;;8.60;99.90;;;;;;5015832;28;20247;-81
2021/12/31 03:27:00;;;;;;;4.30;1.57;;;8.70;99.90;;;;;;4999395;28;20190;-81
2021/12/31 03:29:25;;;;;;;3.10;2.00;;;8.80;99.90;;;;;;4996763;28;20202;-79
2021/12/31 03:31:51;;;;;;;3.87;2.30;;;8.80;99.90;;;;;;5015872;28;20276;-82
2021/12/31 03:34:17;;;;;;;1.57;1.30;;;8.70;99.90;;;;;;5014508;28;20219;-79
2021/12/31 03:36:43;;;;;;;5.07;2.20;;;8.70;99.90;;;;;;5012660;28;20202;-78
2021/12/31 03:39:09;;;;;;;3.17;2.10;;;8.70;99.90;;;;;;5016305;28;20226;-82
2021/12/31 03:41:35;;;;;;;4.80;3.73;;;8.60;99.90;;;;;;4998046;28;20186;-83
2021/12/31 03:44:02;;;;;;;2.55;1.95;;;8.50;99.90;;;;;;4994906;28;20433;-81
2021/12/31 03:46:27;;;;;;;8.27;2.33;;;8.60;99.90;;;;;;5011663;28;20178;-83
2021/12/31 03:48:53;;;;;;;6.30;2.43;;;8.60;99.90;;;;;;4995081;28;20198;-81
2021/12/31 03:51:18;;;;;;;2.10;1.50;;;8.60;99.90;;;;;;5013006;28;20216;-82
2021/12/31 03:53:44;;;;;;;3.43;1.77;;;8.60;99.90;;;;;;4991583;28;20225;-81
2021/12/31 03:56:10;;;;;;;2.10;1.80;;;8.60;99.90;;;;;;4997620;28;20188;-82
2021/12/31 03:58:35;;;;;;;3.00;1.90;;;8.60;99.90;;;;;;5013912;28;20666;-80
2021/12/31 04:01:01;;;;;;;6.20;2.43;;;8.70;99.90;;;;;;5017223;28;20193;-83
2021/12/31 04:03:26;;;;;;;3.30;2.30;;;8.80;99.90;;;;;;4997533;28;20178;-82
2021/12/31 04:05:53;;;;;;;3.90;2.57;;;8.90;99.90;;;;;;5009239;28;20178;-80
2021/12/31 04:08:19;;;;;;;4.40;1.98;;;8.80;99.90;;;;;;5013791;28;20198;-80
2021/12/31 04:10:44;;;;;;;3.67;1.60;;;8.60;99.90;;;;;;5012471;28;20260;-81
2021/12/31 04:13:10;;;;;;;6.60;2.43;;;8.40;99.90;;;;;;5012365;28;20549;-78
2021/12/31 04:15:36;;;;;;;3.80;2.50;;;8.30;99.90;;;;;;5013295;28;20171;-83
2021/12/31 04:18:02;;;;;;;2.47;2.27;;;8.20;99.90;;;;;;5016589;28;20190;-83
2021/12/31 04:20:37;;;;;;;2.53;2.00;;;8.20;99.90;;;;;;5018671;28;20179;-79
2021/12/31 04:23:08;;;;;;;4.40;2.10;;;8.20;99.90;;;;;;5013756;28;20239;-83
2021/12/31 04:25:34;;;;;;;3.05;2.15;;;8.00;99.90;;;;;;5017107;28;20178;-82
2021/12/31 04:27:59;;;;;;;4.90;1.63;;;7.60;99.90;;;;;;5002350;28;20194;-82
2021/12/31 04:30:25;;;;;;;4.13;1.97;;;7.70;99.90;;;;;;5010748;28;20313;-83
2021/12/31 04:32:50;;;;;;;4.03;2.40;;;7.70;99.90;;;;;;5007719;28;20186;-83
2021/12/31 04:35:18;;;;;;;4.30;2.50;;;7.70;99.90;;;;;;4991677;28;20797;-85
2021/12/31 04:37:44;;;;;;;3.10;2.10;;;7.80;99.90;;;;;;4995765;28;20194;-82
2021/12/31 04:40:12;;;;;;;5.03;1.85;;;7.90;99.90;;;;;;4990801;28;20203;-85
2021/12/31 04:42:44;;;;;;;3.67;2.40;;;7.90;99.90;;;;;;4991835;28;20179;-84
2021/12/31 04:45:12;;;;;;;3.83;2.05;;;8.00;99.90;;;;;;5009676;28;20264;-84
2021/12/31 04:47:39;;;;;;;3.17;2.22;;;8.00;99.90;;;;;;4990820;28;20197;-82
2021/12/31 04:50:06;;;;;;;1.95;1.75;;;8.10;99.90;;;;;;5005612;28;20214;-82
2021/12/31 04:52:32;;;;;;;2.75;1.75;;;8.00;99.90;;;;;;4992894;28;20269;-83
2021/12/31 04:54:57;;;;;;;6.20;2.30;;;8.10;99.90;;;;;;5011103;28;20191;-82
2021/12/31 04:57:25;;;;;;;4.70;3.10;;;8.10;99.90;;;;;;5009959;28;20206;-81
2021/12/31 04:59:51;;;;;;;3.60;2.78;;;8.20;99.90;;;;;;5010528;28;20274;-83
2021/12/31 05:02:17;;;;;;;12.73;2.77;;;;;;;;;;4995004;28;20604;-84
2021/12/31 05:04:42;;;;;;;2.50;2.03;;;8.20;99.90;;;;;;4999090;28;20429;-83
2021/12/31 05:07:08;;;;;;;2.83;1.87;;;8.10;99.90;;;;;;5009756;28;20456;-83
2021/12/31 05:09:33;;;;;;;2.13;1.50;;;8.00;99.90;;;;;;5011700;28;20202;-83
2021/12/31 05:12:01;;;;;;;2.97;1.60;;;7.90;99.90;;;;;;5010079;28;20185;-86
2021/12/31 05:14:26;;;;;;;3.95;1.75;;;7.60;99.90;;;;;;5011904;28;20648;-83
2021/12/31 05:16:52;;;;;;;2.17;1.40;;;;;;;;;;4992507;28;20206;-83
2021/12/31 05:19:18;;;;;;;6.37;3.60;;;7.40;99.90;;;;;;5010315;28;20203;-83
2021/12/31 05:21:43;;;;;;;4.40;1.83;;;7.50;99.90;;;;;;4991692;28;20444;-85
2021/12/31 05:24:09;;;;;;;3.30;1.40;;;7.40;99.90;;;;;;5005822;28;20186;-81
2021/12/31 05:26:34;;;;;;;6.13;2.27;;;7.40;99.90;;;;;;5010838;28;20193;-83
2021/12/31 05:29:02;;;;;;;2.60;1.63;;;7.50;99.90;;;;;;5011990;28;20282;-83
2021/12/31 05:31:27;;;;;;;8.95;1.55;;;7.40;99.90;;;;;;4989251;28;20254;-81
2021/12/31 05:33:53;;;;;;;3.27;1.67;;;7.40;99.90;;;;;;5009567;28;20871;-81
2021/12/31 05:36:18;;;;;;;6.80;2.00;;;7.40;99.90;;;;;;5005457;28;20221;-81
2021/12/31 05:38:44;;;;;;;4.37;2.43;;;7.40;99.90;;;;;;4993003;28;20209;-80
2021/12/31 05:41:10;;;;;;;5.00;2.40;;;7.50;99.90;;;;;;4991613;28;20218;-79
2021/12/31 05:43:35;;;;;;;10.10;2.72;;;7.50;99.90;;;;;;5006020;28;20284;-80
2021/12/31 05:46:01;;;;;;;5.10;2.27;;;7.60;99.90;;;;;;4993776;28;20270;-81
2021/12/31 05:48:26;;;;;;;20.33;2.50;;;7.70;99.90;;;;;;5009678;28;20267;-80
2021/12/31 05:50:52;;;;;;;3.80;1.90;;;7.90;99.90;;;;;;4986035;28;20316;-81
2021/12/31 05:53:18;;;;;;;4.90;1.87;;;7.80;99.90;;;;;;5012145;28;21624;-77
2021/12/31 05:55:44;;;;;;;3.60;2.00;;;7.80;99.90;;;;;;5009406;28;20182;-79
2021/12/31 05:58:09;;;;;;;4.67;2.10;;;8.00;99.90;;;;;;5007055;28;21056;-79
2021/12/31 06:00:35;;;;;;;3.00;1.50;;;8.00;99.90;;;;;;5004580;28;20201;-81
2021/12/31 06:03:00;;;;;;;3.10;2.30;;;8.00;99.90;;;;;;4990839;28;21493;-82
2021/12/31 06:05:27;;;;;;;7.57;2.67;;;8.00;99.90;;;;;;4988681;28;20174;-84
2021/12/31 06:07:55;;;;;;;3.92;1.95;;;7.90;99.90;;;;;;4994916;28;20187;-81
2021/12/31 06:10:22;;;;;;;4.28;1.52;;;8.00;99.90;;;;;;4988879;28;20182;-82
2021/12/31 06:12:55;;;;;;;2.35;2.00;;;7.90;99.90;;;;;;5008867;28;20560;-82
2021/12/31 06:15:20;;;;;;;4.45;1.50;;;7.80;99.90;;;;;;5011692;28;20187;-83
2021/12/31 06:17:46;;;;;;;2.70;1.67;;;7.70;99.90;;;;;;5009898;28;20209;-81
2021/12/31 06:20:12;;;;;;;5.83;2.63;;;7.70;99.90;;;;;;4994676;28;20205;-79
2021/12/31 06:22:37;;;;;;;3.70;2.00;;;7.70;99.90;;;;;;5012207;28;20178;-80
2021/12/31 06:25:04;;;;;;;8.07;2.20;;;7.70;99.90;;;;;;5012171;28;20217;-82
2021/12/31 06:27:29;;;;;;;3.20;1.35;;;7.70;99.90;;;;;;5011681;28;20174;-81
2021/12/31 06:29:55;;;;;;;3.00;2.60;;;7.70;99.90;;;;;;5010677;28;20260;-82
2021/12/31 06:32:21;;;;;;;9.80;2.03;;;7.70;99.90;;;;;;5000804;28;20938;-83
2021/12/31 06:34:46;;;;;;;3.40;2.00;;;7.70;99.90;;;;;;4996468;28;20197;-81
2021/12/31 06:37:12;;;;;;;6.37;1.57;;;7.60;99.90;;;;;;5012692;28;20233;-85
2021/12/31 06:39:39;;;;;;;2.40;1.77;;;;;;;;;;5013773;28;20206;-83
2021/12/31 06:42:07;;;;;;;7.55;1.83;;;7.40;99.90;;;;;;4996310;28;20190;-80
2021/12/31 06:44:36;;;;;;;2.20;1.42;;;7.40;99.90;;;;;;4998853;28;20183;-81
2021/12/31 06:47:03;;;;;;;6.20;1.83;;;7.30;99.90;;;;;;4994607;28;20639;-84
2021/12/31 06:49:29;;;;;;;3.50;1.80;;;7.40;99.90;;;;;;4995735;28;20269;-81
2021/12/31 06:51:55;;;;;;;4.70;2.38;;;7.40;99.90;;;;;;5010725;28;20190;-83
2021/12/31 06:54:20;;;;;;;3.13;2.33;;;7.30;99.90;;;;;;4995763;28;21039;-81
2021/12/31 06:56:47;;;;;;;3.53;2.10;;;7.50;99.90;;;;;;5010520;28;20202;-84
2021/12/31 06:59:12;;;;;;;4.65;3.05;;;7.60;99.90;;;;;;4996558;28;20215;-83
2021/12/31 07:01:38;;;;;;;3.67;1.77;;;;;;;;;;5010553;28;20187;-84
2021/12/31 07:04:05;;;;;;;8.80;2.20;;;;;;;;;;5010488;28;20266;-88
2021/12/31 07:06:31;;;;;;;3.50;1.92;;;;;;;;;;4998397;28;20430;-86
2021/12/31 07:08:56;;;;;;;6.97;3.50;;;7.60;99.90;;;;;;5001716;28;20230;-86
2021/12/31 07:11:22;;;;;;;3.30;2.30;;;;;;;;;;5004188;28;20175;-85
2021/12/31 07:13:49;;;;;;;3.70;1.65;;;7.50;99.90;;;;;;5015216;28;20607;-84
2021/12/31 07:16:14;;;;;;;3.95;1.77;;;7.40;99.90;;;;;;5016628;28;20193;-85
2021/12/31 07:18:40;;;;;;;2.60;2.03;;;7.50;99.90;;;;;;5017218;28;20206;-84
2021/12/31 07:21:05;;;;;;;6.47;2.17;;;7.50;99.90;;;;;;5000462;28;20206;-81
2021/12/31 07:23:31;;;;;;;2.67;1.63;;;7.50;99.90;;;;;;5010872;28;20182;-84
2021/12/31 07:25:57;;;;;;;6.03;2.13;;;7.60;99.90;;;;;;5014514;28;20559;-85
2021/12/31 07:28:23;;;;;;;18.13;9.40;;;7.60;99.90;;;;;;4996653;28;20524;-84
2021/12/31 07:30:49;;;;;;;6.97;3.10;;;7.60;99.90;;;;;;5013869;28;20182;-82
2021/12/31 07:33:20;;;;;;;2.50;2.20;;;7.60;99.90;;;;;;5011503;28;20563;-82
2021/12/31 07:35:46;;;;;;;5.03;2.13;;;7.70;99.90;;;;;;5014968;28;20443;-82
2021/12/31 07:38:20;;;;;;;7.97;4.30;;;7.80;99.90;;;;;;5002459;28;20211;-85
2021/12/31 07:40:47;;;;;;;3.28;1.90;;;7.80;99.90;;;;;;5011186;28;20217;-83
2021/12/31 07:43:13;;;;;;;5.45;2.10;;;;;;;;;;5013421;28;20190;-85
2021/12/31 07:45:39;;;;;;;3.65;2.42;;;7.90;99.90;;;;;;5012490;28;20183;-90
2021/12/31 07:48:05;;;;;;;3.43;2.50;;;;;;;;;;5003627;28;20197;-88
2021/12/31 07:50:31;;;;;;;3.70;2.53;;;8.00;99.90;;;;;;5003698;28;20418;-88
2021/12/31 07:52:57;;;;;;;2.53;1.73;;;8.00;99.90;;;;;;5003673;28;20441;-89
2021/12/31 07:55:22;;;;;;;5.57;3.93;;;8.20;99.90;;;;;;5003287;28;20189;-91
2021/12/31 07:57:48;;;;;;;18.20;15.30;;;;;;;;;;5003317;28;20209;-89
2021/12/31 08:00:14;;;;;;;22.23;17.27;;;8.20;99.90;;;;;;5002767;28;20226;-88
2021/12/31 08:02:40;;;;;;;13.23;10.20;;;8.10;99.90;;;;;;5000048;28;20506;-86
2021/12/31 08:05:06;;;;;;;17.07;11.97;;;8.10;99.90;;;;;;4997883;28;20448;-88
2021/12/31 08:07:32;;;;;;;12.00;7.87;;;8.10;99.90;;;;;;5002291;28;20190;-87
2021/12/31 08:09:58;;;;;;;35.63;21.50;;;;;;;;;;5019392;28;20472;-87
2021/12/31 08:12:23;;;;;;;20.27;12.23;;;8.20;99.90;;;;;;5001937;28;20508;-88
2021/12/31 08:14:50;;;;;;;10.03;5.03;;;;;;;;;;5001448;28;20224;-88
2021/12/31 08:17:15;;;;;;;6.93;5.68;;;8.30;99.90;;;;;;4995758;28;20307;-84
2021/12/31 08:19:41;;;;;;;10.30;6.90;;;8.80;99.90;;;;;;4996609;28;20220;-86
2021/12/31 08:22:07;;;;;;;9.48;5.22;;;9.70;99.90;;;;;;4997761;28;20583;-85
2021/12/31 08:24:33;;;;;;;6.80;3.33;;;;;;;;;;5000309;28;20174;-87
2021/12/31 08:26:59;;;;;;;2.13;1.77;;;11.60;99.90;;;;;;5001586;28;20421;-85
2021/12/31 08:29:25;;;;;;;3.90;1.80;;;12.30;99.90;;;;;;4996957;28;20441;-86
2021/12/31 08:31:50;;;;;;;2.30;1.90;;;12.80;99.90;;;;;;4998671;28;20415;-87
2021/12/31 08:34:20;;;;;;;2.37;2.17;;;13.30;99.90;;;;;;5028626;28;20161;-86
2021/12/31 08:36:47;;;;;;;2.47;1.90;;;13.20;99.90;;;;;;5037279;28;20288;-86
2021/12/31 08:39:14;;;;;;;2.20;2.00;;;13.50;99.90;;;;;;5015144;28;20473;-85
2021/12/31 08:41:42;;;;;;;2.30;1.50;;;14.30;99.90;;;;;;4998502;28;20517;-85
2021/12/31 08:44:08;;;;;;;2.83;1.63;;;;;;;;;;5016392;28;20437;-86
2021/12/31 08:46:35;;;;;;;1.43;1.17;;;13.90;99.90;;;;;;5016794;28;20424;-87
2021/12/31 08:49:00;;;;;;;1.30;1.20;;;13.80;99.90;;;;;;4999091;28;21036;-86
2021/12/31 08:51:27;;;;;;;1.80;1.10;;;14.10;99.90;;;;;;5013306;28;20465;-86
2021/12/31 08:53:56;;;;;;;1.50;1.30;;;14.10;99.90;;;;;;4992097;28;20448;-88
2021/12/31 08:56:21;;;;;;;1.70;0.93;;;;;;;;;;5007881;28;20509;-86
2021/12/31 08:58:47;;;;;;;2.30;0.90;;;;;;;;;;5000302;28;20503;-85
2021/12/31 09:01:13;;;;;;;2.20;1.37;;;12.90;99.90;;;;;;5011186;28;20429;-85
2021/12/31 09:03:39;;;;;;;1.47;1.10;;;;;;;;;;5003584;28;21186;-86
2021/12/31 09:06:06;;;;;;;1.73;1.20;;;13.10;99.90;;;;;;4995521;28;20444;-86
2021/12/31 09:08:33;;;;;;;2.50;1.10;;;13.10;99.90;;;;;;4996376;28;20472;-86
2021/12/31 09:11:01;;;;;;;2.83;1.20;;;13.00;99.90;;;;;;4994252;28;20433;-86
2021/12/31 09:13:28;;;;;;;2.30;1.17;;;13.00;99.90;;;;;;5012487;28;20448;-84
2021/12/31 09:15:54;;;;;;;3.47;1.47;;;;;;;;;;5017207;28;20952;-87
2021/12/31 09:18:20;;;;;;;2.83;1.23;;;;;;;;;;5015291;28;20468;-85
2021/12/31 09:20:46;;;;;;;2.90;1.27;;;13.60;99.90;;;;;;4998508;28;20433;-84
2021/12/31 09:23:12;;;;;;;3.27;1.67;;;;;;;;;;4997783;28;20437;-86
2021/12/31 09:25:37;;;;;;;1.50;1.27;;;13.30;99.90;;;;;;4997925;28;20233;-86
2021/12/31 09:28:03;;;;;;;2.83;1.37;;;12.80;99.90;;;;;;5013248;28;20516;-87
2021/12/31 09:30:29;;;;;;;1.80;1.20;;;;;;;;;;4996826;28;20174;-86
2021/12/31 09:32:58;;;;;;;2.23;1.53;;;12.80;99.90;;;;;;5016246;28;20417;-87
2021/12/31 09:35:24;;;;;;;1.60;1.33;;;12.90;99.90;;;;;;5011497;28;20476;-86
2021/12/31 09:37:50;;;;;;;2.13;1.40;;;;;;;;;;5004304;28;20465;-87
2021/12/31 09:40:18;;;;;;;2.67;1.40;;;12.30;99.90;;;;;;4997018;28;20798;-87
2021/12/31 09:43:20;;;;;;;2.57;1.20;;;12.30;99.90;;;;;;5002932;28;20470;-85
2021/12/31 09:45:49;;;;;;;3.03;1.95;;;12.10;99.90;;;;;;4999740;28;20405;-86
2021/12/31 09:48:19;;;;;;;1.70;1.10;;;12.00;99.90;;;;;;4999217;28;20281;-86
2021/12/31 09:51:14;;;;;;;4.72;3.03;;;12.00;99.90;;;;;;4999022;28;20266;-86
2021/12/31 09:53:53;;;;;;;3.87;3.03;;;11.50;99.90;;;;;;5017725;28;20163;-88
2021/12/31 09:56:19;;;;;;;4.90;3.50;;;11.50;99.90;;;;;;5016656;28;20417;-87
2021/12/31 09:58:45;;;;;;;3.60;2.40;;;11.40;99.90;;;;;;5016079;28;20465;-87
2021/12/31 10:01:11;;;;;;;5.00;2.57;;;11.40;99.90;;;;;;4999328;28;20781;-86
2021/12/31 10:03:37;;;;;;;6.90;2.40;;;11.50;99.90;;;;;;4999688;28;20204;-86
2021/12/31 10:06:17;;;;;;;6.03;1.80;;;11.40;99.90;;;;;;4996012;28;20237;-85
2021/12/31 10:08:45;;;;;;;4.73;1.67;;;11.60;99.90;;;;;;4996350;28;20448;-85
2021/12/31 10:11:18;;;;;;;6.03;1.30;;;11.80;99.90;;;;;;4998721;28;20973;-87
2021/12/31 10:14:00;;;;;;;1.70;1.10;;;11.90;99.90;;;;;;4999526;28;20437;-91
2021/12/31 10:16:39;;;;;;;2.90;1.13;;;12.00;99.90;;;;;;4981245;28;20881;-85
2021/12/31 10:19:13;;;;;;;3.53;1.87;;;12.10;99.90;;;;;;5014727;28;20475;-83
2021/12/31 10:21:54;;;;;;;3.30;1.03;;;12.10;99.90;;;;;;4992821;28;20525;-84
2021/12/31 10:24:26;;;;;;;7.10;1.50;;;12.30;99.90;;;;;;5003428;28;20425;-84
2021/12/31 10:26:53;;;;;;;1.60;1.50;;;12.40;99.90;;;;;;4997924;28;21015;-88
2021/12/31 10:29:19;;;;;;;5.77;2.10;;;;;;;;;;4998264;28;20477;-86
2021/12/31 10:31:53;;;;;;;4.00;1.43;;;12.50;99.90;;;;;;4998438;28;20425;-87
2021/12/31 10:34:29;;;;;;;1.67;1.03;;;12.50;99.90;;;;;;4993920;28;20852;-85
2021/12/31 10:37:26;;;;;;;1.87;1.23;;;12.70;99.90;;;;;;4993078;28;20461;-85
2021/12/31 10:40:00;;;;;;;1.93;1.70;;;12.70;99.90;;;;;;5001698;28;20468;-86
2021/12/31 10:42:31;;;;;;;1.50;1.40;;;12.80;99.90;;;;;;4987558;28;20409;-86
2021/12/31 10:44:58;;;;;;;1.60;1.47;;;12.80;99.90;;;;;;4997930;28;20936;-87
2021/12/31 10:47:29;;;;;;;1.20;1.00;;;12.70;99.90;;;;;;5000485;28;20437;-86
2021/12/31 10:50:04;;;;;;;3.53;1.90;;;12.70;99.90;;;;;;5000482;28;20863;-85
2021/12/31 10:52:39;;;;;;;1.97;1.60;;;12.60;99.90;;;;;;5020951;28;20420;-86
2021/12/31 10:55:44;;;;;;;3.43;2.43;;;12.60;99.90;;;;;;5018739;28;20424;-85
2021/12/31 10:58:03;;;;;;;1.67;1.10;;;12.60;99.90;;;;;;5014623;28;20463;-84
2021/12/31 11:00:41;;;;;;;2.70;1.10;;;12.60;99.90;;;;;;5015768;28;20467;-85
2021/12/31 11:03:07;;;;;;;0.80;0.70;;;12.60;99.90;;;;;;4999595;28;20508;-86
2021/12/31 11:05:34;;;;;;;1.33;1.10;;;;;;;;;;4997387;28;20426;-85
2021/12/31 11:08:05;;;;;;;1.23;0.90;;;12.50;99.90;;;;;;5022408;28;20415;-86
2021/12/31 11:10:35;;;;;;;1.43;1.10;;;12.40;99.90;;;;;;5017298;28;20445;-86
2021/12/31 11:13:15;;;;;;;3.57;3.23;;;13.00;99.90;;;;;;5013038;28;20414;-86
2021/12/31 11:15:45;;;;;;;2.90;1.43;;;13.00;99.90;;;;;;5000073;28;20414;-85
2021/12/31 11:18:12;;;;;;;1.13;1.03;;;13.20;99.90;;;;;;5016578;28;20473;-85
2021/12/31 11:20:38;;;;;;;1.37;1.27;;;;;;;;;;5001088;28;20507;-87
2021/12/31 11:23:04;;;;;;;1.57;1.47;;;;;;;;;;5000830;28;20456;-85
2021/12/31 11:25:30;;;;;;;1.13;1.00;;;;;;;;;;5020324;28;20434;-87
2021/12/31 11:27:57;;;;;;;2.07;1.30;;;13.40;99.90;;;;;;5017678;28;20437;-84
2021/12/31 11:30:29;;;;;;;0.70;0.70;;;13.40;99.90;;;;;;5001114;28;20429;-87
2021/12/31 11:33:09;;;;;;;3.47;1.50;;;13.40;99.90;;;;;;5014418;28;20521;-87
2021/12/31 11:35:43;;;;;;;1.20;0.90;;;13.50;99.90;;;;;;4995694;28;20490;-85
2021/12/31 11:38:22;;;;;;;2.07;1.20;;;13.70;99.90;;;;;;5001066;28;20544;-87
2021/12/31 11:41:01;;;;;;;4.03;1.20;;;13.80;99.90;;;;;;4998760;28;20486;-87
2021/12/31 11:43:28;;;;;;;1.27;1.00;;;14.10;99.90;;;;;;4999792;28;20437;-86
2021/12/31 11:46:19;;;;;;;2.40;1.30;;;14.00;99.90;;;;;;4999612;28;20523;-86
2021/12/31 11:48:48;;;;;;;2.37;1.10;;;;;;;;;;5003672;28;20537;-87
2021/12/31 11:51:23;;;;;;;3.63;1.10;;;14.20;99.90;;;;;;5012010;28;20429;-86
2021/12/31 11:53:58;;;;;;;1.00;0.70;;;13.90;99.90;;;;;;5017579;28;20528;-86
2021/12/31 11:56:36;;;;;;;2.30;1.13;;;13.90;99.90;;;;;;5000480;28;20432;-85
2021/12/31 11:59:07;;;;;;;1.00;0.67;;;14.20;99.90;;;;;;4990315;28;20465;-85
2021/12/31 12:01:37;;;;;;;2.70;1.20;;;14.50;99.90;;;;;;5002573;28;20441;-85
2021/12/31 12:04:19;;;;;;;1.27;1.00;;;14.30;99.90;;;;;;5006889;28;20442;-85
2021/12/31 12:07:05;;;;;;;1.90;1.40;;;14.30;99.90;;;;;;4998209;28;20828;-86
2021/12/31 12:09:38;;;;;;;2.00;1.40;;;14.40;99.90;;;;;;5016202;28;20453;-86
2021/12/31 12:12:14;;;;;;;2.07;1.40;;;14.40;99.90;;;;;;4995920;28;20472;-84
2021/12/31 12:14:55;;;;;;;4.13;1.97;;;14.50;99.90;;;;;;5015317;28;20437;-84
2021/12/31 12:17:31;;;;;;;4.10;2.17;;;14.70;99.90;;;;;;4996699;28;20497;-84
2021/12/31 12:19:57;;;;;;;4.60;1.57;;;14.90;99.90;;;;;;5018556;28;20472;-85
2021/12/31 12:22:56;;;;;;;2.57;1.33;;;15.20;99.90;;;;;;5002830;28;20426;-84
2021/12/31 12:25:27;;;;;;;3.50;1.20;;;15.50;99.90;;;;;;5005456;28;20185;-85
2021/12/31 12:28:06;;;;;;;2.37;1.50;;;15.70;99.90;;;;;;5000832;28;20467;-85
2021/12/31 12:30:34;;;;;;;0.90;0.90;;;15.80;99.90;;;;;;5003321;28;20425;-85
2021/12/31 12:35:39;;;;;;;1.40;1.10;;;15.90;99.90;;;;;;5014405;28;21089;-84
2021/12/31 12:38:05;;;;;;;2.07;0.90;;;;;;;;;;5000107;28;20756;-84
2021/12/31 12:40:50;;;;;;;3.80;1.23;;;15.90;99.90;;;;;;5007047;28;20437;-85
2021/12/31 12:43:37;;;;;;;3.03;0.90;;;15.90;99.90;;;;;;5001383;28;20441;-85
2021/12/31 12:46:10;;;;;;;3.30;2.20;;;15.40;99.90;;;;;;4996942;28;20425;-84
2021/12/31 12:48:51;;;;;;;2.60;2.00;;;15.20;99.90;;;;;;4996454;28;20956;-85
2021/12/31 12:51:26;;;;;;;2.67;1.67;;;15.20;99.90;;;;;;5022780;28;20452;-85
2021/12/31 12:53:54;;;;;;;1.17;0.83;;;15.20;99.90;;;;;;5016160;28;20441;-86
2021/12/31 12:56:21;;;;;;;1.87;1.27;;;15.00;99.90;;;;;;5002167;28;20464;-85
2021/12/31 12:58:48;;;;;;;0.60;0.60;;;14.60;99.90;;;;;;4999409;28;20549;-84
2021/12/31 13:01:14;;;;;;;2.50;1.10;;;14.50;99.90;;;;;;4998938;28;20449;-86
2021/12/31 13:03:52;;;;;;;1.60;0.93;;;14.20;99.90;;;;;;5017310;28;20429;-86
2021/12/31 13:06:26;;;;;;;1.83;1.33;;;14.10;99.90;;;;;;5004364;28;20681;-86
2021/12/31 13:09:07;;;;;;;2.70;1.33;;;14.00;99.90;;;;;;5002966;28;20444;-86
2021/12/31 13:11:35;;;;;;;2.10;0.87;;;13.90;99.90;;;;;;4996764;28;20436;-86
2021/12/31 13:14:03;;;;;;;2.27;1.17;;;13.70;99.90;;;;;;4997552;28;20445;-87